CYBG

CFB Bagotville

ICAO Code CYBG
IATA Code YBG
Name CFB Bagotville
Location Bagotville, Quebec, CA
Elevation 522 Feet / 159.1 Meters
Latitude 48.33055556
Longitude -70.99638889
METAR CYBG 080600Z 12004KT 25SM SKC M00/M04 A2999 RMK SLP163
Extra information Display Charts and CFS
Display NOTAMS
Runway Length Width Surface Elevation
11 10000 ft 150 ft ASP/CON 519 ft
18 6000 ft 150 ft ASP 520 ft
29 10000 ft 150 ft ASP/CON 511 ft
36 6000 ft 150 ft ASP 522 ft

Mandatory Routes

CFB Bagotville

Direction Destination Level Remark Type Route
DEP TO CYQB H&L RNAV VBS TADES KAROT ARR
DEP TO CYUL H&L RNAV VBS OBTEK DEBUS OMBRE ARR